createdAt,value
2018-04-29T00:01:39.569Z,98.20
2018-04-29T00:04:07.025Z,97.90
2018-04-29T00:06:33.868Z,97.90
2018-04-29T00:09:00.511Z,97.80
2018-04-29T00:11:27.863Z,97.70
2018-04-29T00:13:55.121Z,97.60
2018-04-29T00:16:21.633Z,97.60
2018-04-29T00:18:48.191Z,97.50
2018-04-29T00:21:15.751Z,97.30
2018-04-29T00:23:42.492Z,97.30
2018-04-29T00:26:09.446Z,97.00
2018-04-29T00:28:36.693Z,96.10
2018-04-29T00:31:04.150Z,96.20
2018-04-29T00:33:31.403Z,95.90
2018-04-29T00:35:57.923Z,95.90
2018-04-29T00:38:24.374Z,95.80
2018-04-29T00:40:51.620Z,95.70
2018-04-29T00:43:18.266Z,95.70
2018-04-29T00:45:45.520Z,95.90
2018-04-29T00:48:11.954Z,95.50
2018-04-29T00:50:38.490Z,95.90
2018-04-29T00:53:05.848Z,96.10
2018-04-29T00:55:32.469Z,96.00
2018-04-29T00:57:59.135Z,95.90
2018-04-29T01:00:26.584Z,95.70
2018-04-29T01:02:53.122Z,95.60
2018-04-29T01:05:20.353Z,95.90
2018-04-29T01:10:49.891Z,96.00
2018-04-29T01:13:16.252Z,95.80
2018-04-29T01:15:42.609Z,95.80
2018-04-29T01:18:08.988Z,95.50
2018-04-29T01:20:35.330Z,95.50
2018-04-29T01:23:01.705Z,95.50
2018-04-29T01:25:28.071Z,95.40
2018-04-29T01:27:54.411Z,95.40
2018-04-29T01:30:20.781Z,95.30
2018-04-29T01:32:47.866Z,95.30
2018-04-29T01:35:14.235Z,95.20
2018-04-29T01:37:40.582Z,95.10
2018-04-29T01:40:07.045Z,95.10
2018-04-29T01:42:33.392Z,95.10
2018-04-29T01:44:59.764Z,95.00
2018-04-29T01:47:27.608Z,95.00
2018-04-29T01:49:54.021Z,95.00
2018-04-29T01:52:20.410Z,95.10
2018-04-29T01:54:47.533Z,95.20
2018-04-29T01:57:13.923Z,95.20
2018-04-29T01:59:41.013Z,95.40
2018-04-29T02:02:07.367Z,95.40
2018-04-29T02:04:33.731Z,95.50
2018-04-29T02:07:00.842Z,95.60
2018-04-29T02:09:27.206Z,95.60
2018-04-29T02:11:54.296Z,95.90
2018-04-29T02:14:20.651Z,95.90
2018-04-29T02:16:46.996Z,96.10
2018-04-29T02:19:13.360Z,96.10
2018-04-29T02:21:40.493Z,96.80
2018-04-29T02:24:07.638Z,96.90
2018-04-29T02:26:34.019Z,96.90
2018-04-29T02:29:00.449Z,97.00
2018-04-29T02:31:26.862Z,97.40
2018-04-29T02:33:53.974Z,97.20
2018-04-29T02:36:20.357Z,97.20
2018-04-29T02:38:46.727Z,97.30
2018-04-29T02:41:13.088Z,97.30
2018-04-29T02:43:39.660Z,97.20
2018-04-29T02:46:06.043Z,97.20
2018-04-29T02:48:32.402Z,97.30
2018-04-29T02:50:59.545Z,97.20
2018-04-29T02:53:25.904Z,97.20
2018-04-29T02:55:52.320Z,97.20
2018-04-29T02:58:18.667Z,97.30
2018-04-29T03:00:45.773Z,97.80
2018-04-29T03:03:12.172Z,97.80
2018-04-29T03:05:38.563Z,97.70
2018-04-29T03:08:04.892Z,97.60
2018-04-29T03:10:31.421Z,97.60
2018-04-29T03:12:57.770Z,97.60
2018-04-29T03:15:24.125Z,97.60
2018-04-29T03:17:50.503Z,97.60
2018-04-29T03:20:16.872Z,97.60
2018-04-29T03:22:43.969Z,97.60
2018-04-29T03:25:10.308Z,97.40
2018-04-29T03:27:36.684Z,97.40
2018-04-29T03:30:03.818Z,97.40
2018-04-29T03:32:31.683Z,97.30
2018-04-29T03:34:58.081Z,97.30
2018-04-29T03:37:24.448Z,97.40
2018-04-29T03:39:50.845Z,97.50
2018-04-29T03:42:17.215Z,97.60
2018-04-29T03:44:43.595Z,97.60
2018-04-29T03:47:09.966Z,97.50
2018-04-29T03:49:36.351Z,97.60
2018-04-29T03:52:03.433Z,97.90
2018-04-29T03:54:29.809Z,97.90
2018-04-29T03:57:09.076Z,97.70
2018-04-29T03:59:47.811Z,97.80
2018-04-29T04:02:26.614Z,97.60
2018-04-29T04:04:53.730Z,97.40
2018-04-29T04:07:20.206Z,96.90
2018-04-29T04:09:46.641Z,96.90
2018-04-29T04:12:12.955Z,97.20
2018-04-29T04:14:40.068Z,96.80
2018-04-29T04:17:06.433Z,96.80
2018-04-29T04:19:33.544Z,97.10
2018-04-29T04:21:59.900Z,97.10
2018-04-29T04:24:26.260Z,97.20
2018-04-29T04:26:53.356Z,97.00
2018-04-29T04:29:19.868Z,97.10
2018-04-29T04:31:46.191Z,97.00
2018-04-29T04:34:12.610Z,96.90
2018-04-29T04:36:39.711Z,96.80
2018-04-29T04:39:06.091Z,96.80
2018-04-29T04:41:33.192Z,96.90
2018-04-29T04:43:59.614Z,96.90
2018-04-29T04:46:26.046Z,96.90
2018-04-29T04:48:52.407Z,96.90
2018-04-29T04:51:18.772Z,96.90
2018-04-29T04:53:45.142Z,97.00
2018-04-29T04:56:11.566Z,97.10
2018-04-29T04:58:37.896Z,97.10
2018-04-29T05:01:04.284Z,97.20
2018-04-29T05:03:30.666Z,97.30
2018-04-29T05:05:57.056Z,97.50
2018-04-29T05:08:23.417Z,97.40
2018-04-29T05:10:49.832Z,97.30
2018-04-29T05:13:16.920Z,97.20
2018-04-29T05:15:43.317Z,97.20
2018-04-29T05:18:10.454Z,97.30
2018-04-29T05:20:36.858Z,97.30
2018-04-29T05:23:03.414Z,97.30
2018-04-29T05:25:29.793Z,97.40
2018-04-29T05:27:56.198Z,97.50
2018-04-29T05:30:23.322Z,97.50
2018-04-29T05:32:49.708Z,97.50
2018-04-29T05:35:16.077Z,97.30
2018-04-29T05:37:42.437Z,97.60
2018-04-29T05:40:08.815Z,97.30
2018-04-29T05:42:35.183Z,97.20
2018-04-29T05:45:01.833Z,96.90
2018-04-29T05:47:28.220Z,97.10
2018-04-29T05:49:55.730Z,96.70
2018-04-29T05:52:22.092Z,96.80
2018-04-29T05:54:48.468Z,96.40
2018-04-29T05:57:14.829Z,96.10
2018-04-29T05:59:41.234Z,95.80
2018-04-29T06:02:07.620Z,95.40
2018-04-29T06:04:33.985Z,95.20
2018-04-29T06:07:00.332Z,94.80
2018-04-29T06:09:26.898Z,94.70
2018-04-29T06:11:53.466Z,94.70
2018-04-29T06:14:21.200Z,94.20
2018-04-29T06:16:48.575Z,94.10
2018-04-29T06:19:15.708Z,93.90
2018-04-29T06:21:42.827Z,93.20
2018-04-29T06:24:09.223Z,93.20
2018-04-29T06:26:35.637Z,93.20
2018-04-29T06:29:02.785Z,93.20
2018-04-29T06:31:29.168Z,92.90
2018-04-29T06:33:55.578Z,92.80
2018-04-29T06:36:21.971Z,92.00
2018-04-29T06:38:48.350Z,91.70
2018-04-29T06:41:15.052Z,91.40
2018-04-29T06:43:42.205Z,90.90
2018-04-29T06:46:09.358Z,90.70
2018-04-29T06:48:35.758Z,90.70
2018-04-29T06:51:02.151Z,90.50
2018-04-29T06:53:28.555Z,90.00
2018-04-29T06:55:54.927Z,89.40
2018-04-29T06:58:21.732Z,89.10
2018-04-29T07:00:49.292Z,88.90
2018-04-29T07:03:17.827Z,88.70
2018-04-29T07:05:49.680Z,88.10
2018-04-29T07:08:16.111Z,88.50
2018-04-29T07:10:42.646Z,87.10
2018-04-29T07:13:09.140Z,87.10
2018-04-29T07:15:35.537Z,86.80
2018-04-29T07:18:01.946Z,86.40
2018-04-29T07:20:28.361Z,87.70
2018-04-29T07:22:55.465Z,81.00
2018-04-29T07:25:21.870Z,81.00
2018-04-29T07:27:48.254Z,79.80
2018-04-29T07:30:15.824Z,78.60
2018-04-29T07:32:42.214Z,77.40
2018-04-29T07:35:08.596Z,73.40
2018-04-29T07:37:34.953Z,70.90
2018-04-29T07:40:01.420Z,71.10
2018-04-29T07:42:27.776Z,68.50
2018-04-29T07:44:54.921Z,66.00
2018-04-29T07:47:21.304Z,66.00
2018-04-29T07:49:48.736Z,64.80
2018-04-29T07:52:15.880Z,61.40
2018-04-29T07:54:42.311Z,60.20
2018-04-29T07:57:08.680Z,60.40
2018-04-29T07:59:35.080Z,60.10
2018-04-29T08:02:01.515Z,58.50
2018-04-29T08:04:27.947Z,58.40
2018-04-29T08:06:54.428Z,57.60
2018-04-29T08:09:20.861Z,55.50
2018-04-29T08:11:47.321Z,55.60
2018-04-29T08:14:13.816Z,55.00
2018-04-29T08:19:13.373Z,53.50
2018-04-29T08:21:39.792Z,53.10
2018-04-29T08:24:06.257Z,52.40
2018-04-29T08:26:32.699Z,52.90
2018-04-29T08:28:59.160Z,54.40
2018-04-29T08:31:26.615Z,56.80
2018-04-29T08:33:53.771Z,55.40
2018-04-29T08:36:21.008Z,55.30
2018-04-29T08:38:47.418Z,55.20
2018-04-29T08:41:15.886Z,54.80
2018-04-29T08:43:42.325Z,55.40
2018-04-29T08:46:08.810Z,55.50
2018-04-29T08:48:35.367Z,53.20
2018-04-29T08:51:01.731Z,51.90
2018-04-29T08:53:28.118Z,50.40
2018-04-29T08:55:55.364Z,49.90
2018-04-29T08:58:21.723Z,49.80
2018-04-29T09:00:48.119Z,49.00
2018-04-29T09:03:14.508Z,48.40
2018-04-29T09:05:40.904Z,46.60
2018-04-29T09:08:07.324Z,46.10
2018-04-29T09:10:33.770Z,46.10
2018-04-29T09:13:00.884Z,44.60
2018-04-29T09:15:27.259Z,44.50
2018-04-29T09:17:59.931Z,44.10
2018-04-29T09:20:32.376Z,43.50
2018-04-29T09:22:58.748Z,42.50
2018-04-29T09:25:25.184Z,42.90
2018-04-29T09:27:51.594Z,40.40
2018-04-29T09:30:18.033Z,41.10
2018-04-29T09:32:45.906Z,42.50
2018-04-29T09:35:18.524Z,42.50
2018-04-29T09:37:51.240Z,44.40
2018-04-29T09:40:17.613Z,42.10
2018-04-29T09:42:50.270Z,42.20
2018-04-29T09:45:16.703Z,42.50
2018-04-29T09:47:43.052Z,41.30
2018-04-29T09:50:10.196Z,41.80
2018-04-29T09:52:37.306Z,43.30
2018-04-29T09:55:03.709Z,42.40
2018-04-29T09:57:30.057Z,41.70
2018-04-29T09:59:56.444Z,37.70
2018-04-29T10:02:23.531Z,37.00
2018-04-29T10:04:49.945Z,37.00
2018-04-29T10:07:16.345Z,37.50
2018-04-29T10:09:42.735Z,37.00
2018-04-29T10:12:09.080Z,37.80
2018-04-29T10:14:35.469Z,39.20
2018-04-29T10:17:02.605Z,35.80
2018-04-29T10:19:35.988Z,37.40
2018-04-29T10:22:03.857Z,36.20
2018-04-29T10:24:30.410Z,36.20
2018-04-29T10:26:56.730Z,37.60
2018-04-29T10:29:23.160Z,35.90
2018-04-29T10:31:50.523Z,33.70
2018-04-29T10:34:17.066Z,33.60
2018-04-29T10:36:43.524Z,37.90
2018-04-29T10:39:10.761Z,33.10
2018-04-29T10:41:43.275Z,33.10
2018-04-29T10:44:16.008Z,33.80
2018-04-29T10:46:43.877Z,34.00
2018-04-29T10:49:10.419Z,34.00
2018-04-29T10:51:36.871Z,34.50
2018-04-29T10:54:03.333Z,32.30
2018-04-29T10:56:29.803Z,32.10
2018-04-29T10:58:58.276Z,31.90
2018-04-29T11:01:26.817Z,32.70
2018-04-29T11:03:57.300Z,32.40
2018-04-29T11:06:27.710Z,31.40
2018-04-29T11:08:54.223Z,35.10
2018-04-29T11:11:20.750Z,30.80
2018-04-29T11:13:47.183Z,31.20
2018-04-29T11:16:13.644Z,31.20
2018-04-29T11:18:40.124Z,29.90
2018-04-29T11:21:10.487Z,30.00
2018-04-29T11:23:36.960Z,29.50
2018-04-29T11:26:03.438Z,30.00
2018-04-29T11:28:30.733Z,31.60
2018-04-29T11:30:57.216Z,31.60
2018-04-29T11:33:28.668Z,29.30
2018-04-29T11:35:55.883Z,29.00
2018-04-29T11:38:25.380Z,29.00
2018-04-29T11:40:57.708Z,29.30
2018-04-29T11:43:24.348Z,29.90
2018-04-29T11:45:51.667Z,32.10
2018-04-29T11:48:20.116Z,32.30
2018-04-29T11:50:46.562Z,30.10
2018-04-29T11:53:13.040Z,29.30
2018-04-29T11:55:39.550Z,28.60
2018-04-29T11:58:06.022Z,31.10
2018-04-29T12:00:35.326Z,33.90
2018-04-29T12:03:01.808Z,33.80
2018-04-29T12:05:28.276Z,30.20
2018-04-29T12:07:54.859Z,32.70
2018-04-29T12:10:21.409Z,31.80
2018-04-29T12:12:47.916Z,29.20
2018-04-29T12:15:14.417Z,29.50
2018-04-29T12:17:40.935Z,31.10
2018-04-29T12:20:07.391Z,31.60
2018-04-29T12:22:33.823Z,32.40
2018-04-29T12:25:00.382Z,29.50
2018-04-29T12:27:26.835Z,29.90
2018-04-29T12:29:53.301Z,29.80
2018-04-29T12:32:19.841Z,31.30
2018-04-29T12:34:46.297Z,29.60
2018-04-29T12:37:12.961Z,29.60
2018-04-29T12:39:39.409Z,31.60
2018-04-29T12:42:05.876Z,30.50
2018-04-29T12:44:32.338Z,28.10
2018-04-29T12:46:58.809Z,26.20
2018-04-29T12:49:25.231Z,30.70
2018-04-29T12:51:52.609Z,27.50
2018-04-29T12:54:19.027Z,27.50
2018-04-29T12:56:45.495Z,28.70
2018-04-29T12:59:11.953Z,28.60
2018-04-29T13:01:38.393Z,29.80
2018-04-29T13:04:05.684Z,28.90
2018-04-29T13:06:32.147Z,28.90
2018-04-29T13:08:58.636Z,29.70
2018-04-29T13:11:25.230Z,32.00
2018-04-29T13:13:51.717Z,30.10
2018-04-29T13:16:18.211Z,29.70
2018-04-29T13:18:44.671Z,29.20
2018-04-29T13:21:11.901Z,29.60
2018-04-29T13:23:38.351Z,29.60
2018-04-29T13:26:05.572Z,29.30
2018-04-29T13:28:32.065Z,29.20
2018-04-29T13:30:58.589Z,27.80
2018-04-29T13:33:25.246Z,28.90
2018-04-29T13:35:51.864Z,28.50
2018-04-29T13:38:18.389Z,29.80
2018-04-29T13:40:45.093Z,28.40
2018-04-29T13:43:11.559Z,28.80
2018-04-29T13:45:38.785Z,29.00
2018-04-29T13:48:05.264Z,29.00
2018-04-29T13:50:31.754Z,29.40
2018-04-29T13:52:58.282Z,28.90
2018-04-29T13:55:24.747Z,28.30
2018-04-29T13:57:51.942Z,30.70
2018-04-29T14:00:18.503Z,30.80
2018-04-29T14:02:44.928Z,27.90
2018-04-29T14:05:11.404Z,26.90
2018-04-29T14:07:38.600Z,27.40
2018-04-29T14:10:05.160Z,27.40
2018-04-29T14:12:31.659Z,28.50
2018-04-29T14:14:58.132Z,27.90
2018-04-29T14:17:24.644Z,29.40
2018-04-29T14:19:51.954Z,29.30
2018-04-29T14:22:19.208Z,29.40
2018-04-29T14:24:45.698Z,29.80
2018-04-29T14:27:12.175Z,29.70
2018-04-29T14:29:39.414Z,31.20
2018-04-29T14:32:05.901Z,31.20
2018-04-29T14:34:32.399Z,30.10
2018-04-29T14:36:58.860Z,30.00
2018-04-29T14:39:25.346Z,30.20
2018-04-29T14:41:51.792Z,30.00
2018-04-29T14:44:19.028Z,31.60
2018-04-29T14:46:45.482Z,31.60
2018-04-29T14:49:12.679Z,32.00
2018-04-29T14:51:39.178Z,31.90
2018-04-29T14:54:05.692Z,30.20
2018-04-29T14:56:32.186Z,31.20
2018-04-29T14:58:58.736Z,31.70
2018-04-29T15:01:25.401Z,32.20
2018-04-29T15:03:51.887Z,32.90
2018-04-29T15:06:18.342Z,29.80
2018-04-29T15:08:44.818Z,29.20
2018-04-29T15:11:12.041Z,29.70
2018-04-29T15:13:38.500Z,29.70
2018-04-29T15:16:05.007Z,29.50
2018-04-29T15:18:44.715Z,30.00
2018-04-29T15:21:11.196Z,32.00
2018-04-29T15:23:37.921Z,30.50
2018-04-29T15:26:04.495Z,32.20
2018-04-29T15:28:31.705Z,31.00
2018-04-29T15:30:58.190Z,31.00
2018-04-29T15:33:24.747Z,31.10
2018-04-29T15:35:51.312Z,30.00
2018-04-29T15:38:17.771Z,30.20
2018-04-29T15:40:45.101Z,30.00
2018-04-29T15:43:11.519Z,29.90
2018-04-29T15:45:48.147Z,30.80
2018-04-29T15:48:21.478Z,32.20
2018-04-29T15:50:48.020Z,32.10
2018-04-29T15:53:14.534Z,32.30
2018-04-29T15:55:48.099Z,31.80
2018-04-29T15:58:14.593Z,32.30
2018-04-29T16:00:53.448Z,33.20
2018-04-29T16:03:19.928Z,32.40
2018-04-29T16:05:46.440Z,32.60
2018-04-29T16:08:13.716Z,32.90
2018-04-29T16:10:40.256Z,32.90
2018-04-29T16:13:06.741Z,32.70
2018-04-29T16:15:34.008Z,33.50
2018-04-29T16:18:01.237Z,33.20
2018-04-29T16:20:29.216Z,32.60
2018-04-29T16:22:55.679Z,32.50
2018-04-29T16:25:22.209Z,33.70
2018-04-29T16:27:53.418Z,32.80
2018-04-29T16:30:21.939Z,32.80
2018-04-29T16:33:02.179Z,33.70
2018-04-29T16:35:30.700Z,33.70
2018-04-29T16:37:57.190Z,33.30
2018-04-29T16:40:23.755Z,33.60
2018-04-29T16:42:50.975Z,34.20
2018-04-29T16:45:19.486Z,34.10
2018-04-29T16:47:46.703Z,35.30
2018-04-29T16:50:13.225Z,35.30
2018-04-29T16:52:39.692Z,35.70
2018-04-29T16:55:22.483Z,36.10
2018-04-29T16:57:50.716Z,36.40
2018-04-29T17:00:17.201Z,36.40
2018-04-29T17:02:44.419Z,36.20
2018-04-29T17:05:14.064Z,36.20
2018-04-29T17:07:46.221Z,36.60
2018-04-29T17:10:13.529Z,36.10
2018-04-29T17:12:40.025Z,36.00
2018-04-29T17:15:07.581Z,36.70
2018-04-29T17:17:34.150Z,36.50
2018-04-29T17:20:01.387Z,37.10
2018-04-29T17:22:31.884Z,37.00
2018-04-29T17:24:58.439Z,37.60
2018-04-29T17:27:26.111Z,38.30
2018-04-29T17:29:52.642Z,38.40
2018-04-29T17:32:19.207Z,39.10
2018-04-29T17:34:45.813Z,39.70
2018-04-29T17:37:23.623Z,40.40
2018-04-29T17:39:50.499Z,40.90
2018-04-29T17:42:17.349Z,41.00
2018-04-29T17:44:43.947Z,41.60
2018-04-29T17:47:11.124Z,41.60
2018-04-29T17:49:37.665Z,41.80
2018-04-29T17:52:04.973Z,42.50
2018-04-29T17:54:35.444Z,42.50
2018-04-29T17:57:01.954Z,42.70
2018-04-29T17:59:28.469Z,42.80
2018-04-29T18:01:54.953Z,43.10
2018-04-29T18:04:21.456Z,43.30
2018-04-29T18:06:47.971Z,43.40
2018-04-29T18:09:14.500Z,43.60
2018-04-29T18:11:41.030Z,43.50
2018-04-29T18:14:07.568Z,43.40
2018-04-29T18:16:34.086Z,43.30
2018-04-29T18:19:06.780Z,43.40
2018-04-29T18:21:33.271Z,42.90
2018-04-29T18:23:59.835Z,42.90
2018-04-29T18:26:27.204Z,42.30
2018-04-29T18:28:53.719Z,42.30
2018-04-29T18:31:20.953Z,42.50
2018-04-29T18:33:47.466Z,42.40
2018-04-29T18:36:13.983Z,42.10
2018-04-29T18:38:40.460Z,42.40
2018-04-29T18:41:07.752Z,42.70
2018-04-29T18:43:34.412Z,42.40
2018-04-29T18:46:00.940Z,42.50
2018-04-29T18:48:27.433Z,42.50
2018-04-29T18:50:54.816Z,42.80
2018-04-29T18:53:21.193Z,42.70
2018-04-29T18:55:47.708Z,43.00
2018-04-29T18:58:14.192Z,42.70
2018-04-29T19:00:42.469Z,43.90
2018-04-29T19:03:08.957Z,43.80
2018-04-29T19:08:38.499Z,44.20
2018-04-29T19:11:05.100Z,44.60
2018-04-29T19:13:31.542Z,45.00
2018-04-29T19:15:58.084Z,45.00
2018-04-29T19:18:24.564Z,45.20
2018-04-29T19:20:51.077Z,45.40
2018-04-29T19:23:17.541Z,45.80
2018-04-29T19:25:44.026Z,45.90
2018-04-29T19:28:10.458Z,46.30
2018-04-29T19:30:36.959Z,46.70
2018-04-29T19:33:04.200Z,47.00
2018-04-29T19:35:30.696Z,47.00
2018-04-29T19:38:01.064Z,47.10
2018-04-29T19:40:36.784Z,47.70
2018-04-29T19:43:04.234Z,47.70
2018-04-29T19:45:30.778Z,48.00
2018-04-29T19:48:03.176Z,48.50
2018-04-29T19:50:35.357Z,49.00
2018-04-29T19:53:05.944Z,49.00
2018-04-29T19:55:32.459Z,49.20
2018-04-29T19:57:58.939Z,49.70
2018-04-29T20:00:29.331Z,49.90
2018-04-29T20:02:55.784Z,50.00
2018-04-29T20:05:22.283Z,50.30
2018-04-29T20:07:48.737Z,50.40
2018-04-29T20:10:15.287Z,50.60
2018-04-29T20:12:41.779Z,50.80
2018-04-29T20:15:08.276Z,50.80
2018-04-29T20:17:34.812Z,50.90
2018-04-29T20:20:01.420Z,51.20
2018-04-29T20:22:27.876Z,51.30
2018-04-29T20:24:54.493Z,51.40
2018-04-29T20:27:20.950Z,51.60
2018-04-29T20:29:47.470Z,52.00
2018-04-29T20:32:13.953Z,52.30
2018-04-29T20:34:40.443Z,52.50
2018-04-29T20:37:06.920Z,52.50
2018-04-29T20:39:33.442Z,53.10
2018-04-29T20:41:59.888Z,53.30
2018-04-29T20:44:26.369Z,53.50
2018-04-29T20:46:52.840Z,53.50
2018-04-29T20:49:19.333Z,53.80
2018-04-29T20:51:46.597Z,54.00
2018-04-29T20:54:13.068Z,54.00
2018-04-29T20:56:39.536Z,54.00
2018-04-29T20:59:06.843Z,54.40
2018-04-29T21:01:33.371Z,54.40
2018-04-29T21:03:59.840Z,54.60
2018-04-29T21:06:26.364Z,54.60
2018-04-29T21:08:53.010Z,54.60
2018-04-29T21:11:20.311Z,54.50
2018-04-29T21:13:46.799Z,54.50
2018-04-29T21:16:13.281Z,54.50
2018-04-29T21:18:43.701Z,54.20
2018-04-29T21:21:10.210Z,54.30
2018-04-29T21:23:36.716Z,54.30
2018-04-29T21:26:03.252Z,54.70
2018-04-29T21:28:29.734Z,55.20
2018-04-29T21:30:56.964Z,55.50
2018-04-29T21:33:23.433Z,55.10
2018-04-29T21:35:50.643Z,54.70
2018-04-29T21:38:17.111Z,54.70
2018-04-29T21:40:51.311Z,54.90
2018-04-29T21:43:17.758Z,54.90
2018-04-29T21:48:48.997Z,54.90
2018-04-29T21:51:38.164Z,54.00
2018-04-29T21:54:04.652Z,54.30
2018-04-29T21:56:31.139Z,54.10
2018-04-29T21:58:57.650Z,54.10
2018-04-29T22:01:24.162Z,53.70
2018-04-29T22:03:50.688Z,53.50
2018-04-29T22:06:17.189Z,53.50
2018-04-29T22:08:51.758Z,53.90
2018-04-29T22:11:18.224Z,53.70
2018-04-29T22:13:44.715Z,53.90
2018-04-29T22:16:17.464Z,54.20
2018-04-29T22:19:04.896Z,54.70
2018-04-29T22:21:44.618Z,54.70
2018-04-29T22:24:17.159Z,54.00
2018-04-29T22:26:49.915Z,54.10
2018-04-29T22:29:22.619Z,54.10
2018-04-29T22:31:49.033Z,54.00
2018-04-29T22:34:15.384Z,54.00
2018-04-29T22:36:45.831Z,53.90
2018-04-29T22:39:12.199Z,53.80
2018-04-29T22:41:38.604Z,53.90
2018-04-29T22:44:04.963Z,54.40
2018-04-29T22:46:31.496Z,53.80
2018-04-29T22:48:57.908Z,54.00
2018-04-29T22:51:24.355Z,54.10
2018-04-29T22:53:50.806Z,54.30
2018-04-29T22:56:27.575Z,54.40
2018-04-29T22:58:53.988Z,54.60
2018-04-29T23:01:20.522Z,55.00
2018-04-29T23:03:46.999Z,55.00
2018-04-29T23:06:19.701Z,55.30
2018-04-29T23:08:46.165Z,55.30
2018-04-29T23:11:14.668Z,55.30
2018-04-29T23:13:41.100Z,55.00
2018-04-29T23:16:14.692Z,55.00
2018-04-29T23:18:43.272Z,55.10
2018-04-29T23:21:09.745Z,55.10
2018-04-29T23:23:36.229Z,55.10
2018-04-29T23:26:02.741Z,54.80
2018-04-29T23:28:29.176Z,54.60
2018-04-29T23:30:55.689Z,54.70
2018-04-29T23:33:22.124Z,54.10
2018-04-29T23:35:48.676Z,53.80
2018-04-29T23:38:15.184Z,53.30
2018-04-29T23:40:46.907Z,53.30
2018-04-29T23:43:13.352Z,53.40
2018-04-29T23:45:41.927Z,53.60
2018-04-29T23:48:08.400Z,53.60
2018-04-29T23:50:34.926Z,54.00
2018-04-29T23:53:01.372Z,54.40
2018-04-29T23:55:27.850Z,55.30
2018-04-29T23:57:55.145Z,56.50
